sensor_id;sensor_type;location;lat;lon;timestamp;P1;durP1;ratioP1;P2;durP2;ratioP2
71679;SDS011;59512;42.662;23.254;2023-07-22T00:02:17;18.65;;;8.57;;
71679;SDS011;59512;42.662;23.254;2023-07-22T00:04:42;19.33;;;8.43;;
71679;SDS011;59512;42.662;23.254;2023-07-22T00:07:08;18.83;;;8.50;;
71679;SDS011;59512;42.662;23.254;2023-07-22T00:09:33;13.77;;;5.97;;
71679;SDS011;59512;42.662;23.254;2023-07-22T00:11:59;16.77;;;6.27;;
71679;SDS011;59512;42.662;23.254;2023-07-22T00:14:25;14.67;;;5.83;;
71679;SDS011;59512;42.662;23.254;2023-07-22T00:16:50;13.35;;;5.70;;
71679;SDS011;59512;42.662;23.254;2023-07-22T00:19:16;14.30;;;5.87;;
71679;SDS011;59512;42.662;23.254;2023-07-22T00:21:41;13.07;;;5.47;;
71679;SDS011;59512;42.662;23.254;2023-07-22T00:24:07;18.13;;;6.28;;
71679;SDS011;59512;42.662;23.254;2023-07-22T00:26:33;18.60;;;6.60;;
71679;SDS011;59512;42.662;23.254;2023-07-22T00:28:58;13.70;;;5.97;;
71679;SDS011;59512;42.662;23.254;2023-07-22T00:31:24;13.80;;;6.23;;
71679;SDS011;59512;42.662;23.254;2023-07-22T00:33:49;18.58;;;8.45;;
71679;SDS011;59512;42.662;23.254;2023-07-22T00:36:15;21.80;;;8.88;;
71679;SDS011;59512;42.662;23.254;2023-07-22T00:38:40;15.50;;;7.37;;
71679;SDS011;59512;42.662;23.254;2023-07-22T00:41:06;14.93;;;7.33;;
71679;SDS011;59512;42.662;23.254;2023-07-22T00:43:32;19.08;;;8.60;;
71679;SDS011;59512;42.662;23.254;2023-07-22T00:45:58;16.88;;;8.10;;
71679;SDS011;59512;42.662;23.254;2023-07-22T00:48:23;18.75;;;7.55;;
71679;SDS011;59512;42.662;23.254;2023-07-22T00:50:49;19.17;;;9.63;;
71679;SDS011;59512;42.662;23.254;2023-07-22T00:53:15;15.47;;;7.57;;
71679;SDS011;59512;42.662;23.254;2023-07-22T00:55:41;14.73;;;7.18;;
71679;SDS011;59512;42.662;23.254;2023-07-22T00:58:06;17.30;;;7.20;;
71679;SDS011;59512;42.662;23.254;2023-07-22T01:00:32;19.47;;;6.53;;
71679;SDS011;59512;42.662;23.254;2023-07-22T01:02:58;15.57;;;6.72;;
71679;SDS011;59512;42.662;23.254;2023-07-22T01:05:23;14.05;;;6.43;;
71679;SDS011;59512;42.662;23.254;2023-07-22T01:07:50;14.67;;;7.20;;
71679;SDS011;59512;42.662;23.254;2023-07-22T01:10:16;15.32;;;7.15;;
71679;SDS011;59512;42.662;23.254;2023-07-22T01:12:42;13.30;;;6.90;;
71679;SDS011;59512;42.662;23.254;2023-07-22T01:15:08;15.20;;;6.95;;
71679;SDS011;59512;42.662;23.254;2023-07-22T01:17:34;14.27;;;6.20;;
71679;SDS011;59512;42.662;23.254;2023-07-22T01:20:01;13.10;;;6.25;;
71679;SDS011;59512;42.662;23.254;2023-07-22T01:22:28;14.20;;;6.63;;
71679;SDS011;59512;42.662;23.254;2023-07-22T01:24:54;14.40;;;7.22;;
71679;SDS011;59512;42.662;23.254;2023-07-22T01:27:19;16.17;;;7.90;;
71679;SDS011;59512;42.662;23.254;2023-07-22T01:29:45;14.57;;;7.32;;
71679;SDS011;59512;42.662;23.254;2023-07-22T01:32:10;12.23;;;6.50;;
71679;SDS011;59512;42.662;23.254;2023-07-22T01:34:36;14.87;;;6.30;;
71679;SDS011;59512;42.662;23.254;2023-07-22T01:37:01;15.20;;;6.67;;
71679;SDS011;59512;42.662;23.254;2023-07-22T01:39:28;15.18;;;6.68;;
71679;SDS011;59512;42.662;23.254;2023-07-22T01:41:53;14.30;;;6.53;;
71679;SDS011;59512;42.662;23.254;2023-07-22T01:44:19;13.27;;;6.50;;
71679;SDS011;59512;42.662;23.254;2023-07-22T01:46:44;12.47;;;6.70;;
71679;SDS011;59512;42.662;23.254;2023-07-22T01:49:10;15.77;;;7.80;;
71679;SDS011;59512;42.662;23.254;2023-07-22T01:51:37;13.32;;;6.72;;
71679;SDS011;59512;42.662;23.254;2023-07-22T01:54:03;14.82;;;7.43;;
71679;SDS011;59512;42.662;23.254;2023-07-22T01:56:29;14.00;;;7.20;;
71679;SDS011;59512;42.662;23.254;2023-07-22T01:58:55;12.93;;;6.72;;
71679;SDS011;59512;42.662;23.254;2023-07-22T02:01:21;12.60;;;6.80;;
71679;SDS011;59512;42.662;23.254;2023-07-22T02:03:46;16.90;;;7.57;;
71679;SDS011;59512;42.662;23.254;2023-07-22T02:06:12;16.83;;;7.07;;
71679;SDS011;59512;42.662;23.254;2023-07-22T02:08:37;15.77;;;6.67;;
71679;SDS011;59512;42.662;23.254;2023-07-22T02:11:04;11.77;;;6.80;;
71679;SDS011;59512;42.662;23.254;2023-07-22T02:13:30;12.67;;;6.80;;
71679;SDS011;59512;42.662;23.254;2023-07-22T02:15:56;14.38;;;6.68;;
71679;SDS011;59512;42.662;23.254;2023-07-22T02:18:22;12.40;;;6.47;;
71679;SDS011;59512;42.662;23.254;2023-07-22T02:20:47;14.50;;;6.38;;
71679;SDS011;59512;42.662;23.254;2023-07-22T02:23:13;12.53;;;7.00;;
71679;SDS011;59512;42.662;23.254;2023-07-22T02:25:39;13.18;;;6.85;;
71679;SDS011;59512;42.662;23.254;2023-07-22T02:28:04;13.60;;;6.60;;
71679;SDS011;59512;42.662;23.254;2023-07-22T02:30:33;13.05;;;6.70;;
71679;SDS011;59512;42.662;23.254;2023-07-22T02:33:00;17.13;;;7.35;;
71679;SDS011;59512;42.662;23.254;2023-07-22T02:35:27;15.47;;;7.13;;
71679;SDS011;59512;42.662;23.254;2023-07-22T02:37:52;13.60;;;7.10;;
71679;SDS011;59512;42.662;23.254;2023-07-22T02:40:18;13.10;;;7.27;;
71679;SDS011;59512;42.662;23.254;2023-07-22T02:42:43;22.13;;;8.40;;
71679;SDS011;59512;42.662;23.254;2023-07-22T02:45:09;19.02;;;7.82;;
71679;SDS011;59512;42.662;23.254;2023-07-22T02:47:35;18.00;;;8.07;;
71679;SDS011;59512;42.662;23.254;2023-07-22T02:50:01;22.27;;;7.82;;
71679;SDS011;59512;42.662;23.254;2023-07-22T02:52:26;12.45;;;7.13;;
71679;SDS011;59512;42.662;23.254;2023-07-22T02:55:08;16.40;;;8.20;;
71679;SDS011;59512;42.662;23.254;2023-07-22T02:57:36;16.23;;;7.85;;
71679;SDS011;59512;42.662;23.254;2023-07-22T03:00:02;18.60;;;8.40;;
71679;SDS011;59512;42.662;23.254;2023-07-22T03:02:32;15.10;;;7.68;;
71679;SDS011;59512;42.662;23.254;2023-07-22T03:04:58;19.92;;;8.32;;
71679;SDS011;59512;42.662;23.254;2023-07-22T03:07:23;19.20;;;8.13;;
71679;SDS011;59512;42.662;23.254;2023-07-22T03:09:51;25.90;;;8.77;;
71679;SDS011;59512;42.662;23.254;2023-07-22T03:12:17;22.80;;;9.13;;
71679;SDS011;59512;42.662;23.254;2023-07-22T03:14:42;17.67;;;9.17;;
71679;SDS011;59512;42.662;23.254;2023-07-22T03:17:07;19.40;;;8.73;;
71679;SDS011;59512;42.662;23.254;2023-07-22T03:19:33;16.63;;;8.53;;
71679;SDS011;59512;42.662;23.254;2023-07-22T03:21:58;15.27;;;8.00;;
71679;SDS011;59512;42.662;23.254;2023-07-22T03:24:24;21.33;;;9.07;;
71679;SDS011;59512;42.662;23.254;2023-07-22T03:26:50;16.13;;;8.80;;
71679;SDS011;59512;42.662;23.254;2023-07-22T03:29:15;20.27;;;8.47;;
71679;SDS011;59512;42.662;23.254;2023-07-22T03:31:41;20.77;;;8.55;;
71679;SDS011;59512;42.662;23.254;2023-07-22T03:34:06;18.43;;;8.40;;
71679;SDS011;59512;42.662;23.254;2023-07-22T03:36:32;19.00;;;7.90;;
71679;SDS011;59512;42.662;23.254;2023-07-22T03:39:00;15.50;;;8.18;;
71679;SDS011;59512;42.662;23.254;2023-07-22T03:41:26;16.98;;;8.00;;
71679;SDS011;59512;42.662;23.254;2023-07-22T03:43:51;18.43;;;8.60;;
71679;SDS011;59512;42.662;23.254;2023-07-22T03:46:16;16.77;;;8.73;;
71679;SDS011;59512;42.662;23.254;2023-07-22T03:48:42;13.30;;;7.50;;
71679;SDS011;59512;42.662;23.254;2023-07-22T03:51:07;15.13;;;8.70;;
71679;SDS011;59512;42.662;23.254;2023-07-22T03:53:33;18.02;;;8.52;;
71679;SDS011;59512;42.662;23.254;2023-07-22T03:55:58;15.73;;;8.67;;
71679;SDS011;59512;42.662;23.254;2023-07-22T03:58:23;19.17;;;8.50;;
71679;SDS011;59512;42.662;23.254;2023-07-22T04:00:49;19.33;;;8.87;;
71679;SDS011;59512;42.662;23.254;2023-07-22T04:03:14;16.05;;;8.30;;
71679;SDS011;59512;42.662;23.254;2023-07-22T04:05:40;17.27;;;8.73;;
71679;SDS011;59512;42.662;23.254;2023-07-22T04:08:05;18.87;;;8.90;;
71679;SDS011;59512;42.662;23.254;2023-07-22T04:10:31;22.90;;;9.10;;
71679;SDS011;59512;42.662;23.254;2023-07-22T04:12:56;16.80;;;9.05;;
71679;SDS011;59512;42.662;23.254;2023-07-22T04:15:22;21.77;;;9.32;;
71679;SDS011;59512;42.662;23.254;2023-07-22T04:17:47;17.67;;;8.37;;
71679;SDS011;59512;42.662;23.254;2023-07-22T04:20:13;18.23;;;9.10;;
71679;SDS011;59512;42.662;23.254;2023-07-22T04:22:38;18.40;;;8.87;;
71679;SDS011;59512;42.662;23.254;2023-07-22T04:25:04;20.73;;;8.83;;
71679;SDS011;59512;42.662;23.254;2023-07-22T04:27:30;17.27;;;8.75;;
71679;SDS011;59512;42.662;23.254;2023-07-22T04:29:55;19.07;;;8.30;;
71679;SDS011;59512;42.662;23.254;2023-07-22T04:32:21;19.98;;;8.48;;
71679;SDS011;59512;42.662;23.254;2023-07-22T04:34:46;16.83;;;8.25;;
71679;SDS011;59512;42.662;23.254;2023-07-22T04:37:12;20.03;;;8.67;;
71679;SDS011;59512;42.662;23.254;2023-07-22T04:39:38;22.13;;;9.38;;
71679;SDS011;59512;42.662;23.254;2023-07-22T04:42:03;20.67;;;9.63;;
71679;SDS011;59512;42.662;23.254;2023-07-22T04:44:29;18.23;;;8.67;;
71679;SDS011;59512;42.662;23.254;2023-07-22T04:46:54;18.00;;;8.98;;
71679;SDS011;59512;42.662;23.254;2023-07-22T04:49:20;23.67;;;9.03;;
71679;SDS011;59512;42.662;23.254;2023-07-22T04:51:47;19.13;;;8.77;;
71679;SDS011;59512;42.662;23.254;2023-07-22T04:54:12;19.60;;;9.07;;
71679;SDS011;59512;42.662;23.254;2023-07-22T04:56:38;19.02;;;8.10;;
71679;SDS011;59512;42.662;23.254;2023-07-22T04:59:04;19.03;;;8.30;;
71679;SDS011;59512;42.662;23.254;2023-07-22T05:01:29;15.07;;;6.85;;
71679;SDS011;59512;42.662;23.254;2023-07-22T05:03:54;13.97;;;7.07;;
71679;SDS011;59512;42.662;23.254;2023-07-22T05:06:20;15.97;;;7.93;;
71679;SDS011;59512;42.662;23.254;2023-07-22T05:08:46;16.38;;;7.07;;
71679;SDS011;59512;42.662;23.254;2023-07-22T05:11:11;14.40;;;7.37;;
71679;SDS011;59512;42.662;23.254;2023-07-22T05:13:37;12.90;;;6.50;;
71679;SDS011;59512;42.662;23.254;2023-07-22T05:16:02;13.60;;;7.07;;
71679;SDS011;59512;42.662;23.254;2023-07-22T05:18:28;17.00;;;6.72;;
71679;SDS011;59512;42.662;23.254;2023-07-22T05:20:53;15.70;;;6.93;;
71679;SDS011;59512;42.662;23.254;2023-07-22T05:23:19;14.23;;;6.60;;
71679;SDS011;59512;42.662;23.254;2023-07-22T05:25:50;14.63;;;6.70;;
71679;SDS011;59512;42.662;23.254;2023-07-22T05:28:16;13.02;;;6.75;;
71679;SDS011;59512;42.662;23.254;2023-07-22T05:30:41;12.43;;;6.70;;
71679;SDS011;59512;42.662;23.254;2023-07-22T05:33:06;10.65;;;6.85;;
71679;SDS011;59512;42.662;23.254;2023-07-22T05:35:32;11.05;;;6.60;;
71679;SDS011;59512;42.662;23.254;2023-07-22T05:37:57;14.07;;;7.13;;
71679;SDS011;59512;42.662;23.254;2023-07-22T05:40:23;13.00;;;6.87;;
71679;SDS011;59512;42.662;23.254;2023-07-22T06:07:20;13.57;;;8.27;;
71679;SDS011;59512;42.662;23.254;2023-07-22T06:09:45;14.33;;;8.77;;
71679;SDS011;59512;42.662;23.254;2023-07-22T06:12:10;17.40;;;8.83;;
71679;SDS011;59512;42.662;23.254;2023-07-22T06:14:36;14.68;;;8.88;;
71679;SDS011;59512;42.662;23.254;2023-07-22T06:17:02;12.95;;;8.10;;
71679;SDS011;59512;42.662;23.254;2023-07-22T06:19:27;16.20;;;8.83;;
71679;SDS011;59512;42.662;23.254;2023-07-22T06:21:53;16.58;;;9.23;;
71679;SDS011;59512;42.662;23.254;2023-07-22T06:24:19;15.57;;;8.50;;
71679;SDS011;59512;42.662;23.254;2023-07-22T06:26:44;15.27;;;9.15;;
71679;SDS011;59512;42.662;23.254;2023-07-22T06:29:10;14.00;;;8.70;;
71679;SDS011;59512;42.662;23.254;2023-07-22T06:31:35;15.90;;;9.67;;
71679;SDS011;59512;42.662;23.254;2023-07-22T06:34:00;17.70;;;10.93;;
71679;SDS011;59512;42.662;23.254;2023-07-22T06:36:26;18.63;;;10.53;;
71679;SDS011;59512;42.662;23.254;2023-07-22T06:38:52;17.00;;;11.07;;
71679;SDS011;59512;42.662;23.254;2023-07-22T06:41:17;18.90;;;11.27;;
71679;SDS011;59512;42.662;23.254;2023-07-22T06:43:44;18.65;;;11.65;;
71679;SDS011;59512;42.662;23.254;2023-07-22T06:46:09;18.05;;;10.35;;
71679;SDS011;59512;42.662;23.254;2023-07-22T06:48:35;17.80;;;10.77;;
71679;SDS011;59512;42.662;23.254;2023-07-22T06:51:00;17.77;;;10.87;;
71679;SDS011;59512;42.662;23.254;2023-07-22T06:53:26;19.50;;;10.87;;
71679;SDS011;59512;42.662;23.254;2023-07-22T06:55:51;16.73;;;11.43;;
71679;SDS011;59512;42.662;23.254;2023-07-22T06:58:17;16.77;;;11.52;;
71679;SDS011;59512;42.662;23.254;2023-07-22T07:00:43;19.50;;;11.23;;
71679;SDS011;59512;42.662;23.254;2023-07-22T07:03:09;16.97;;;10.20;;
71679;SDS011;59512;42.662;23.254;2023-07-22T07:05:35;18.65;;;9.73;;
71679;SDS011;59512;42.662;23.254;2023-07-22T07:08:00;16.00;;;8.90;;
71679;SDS011;59512;42.662;23.254;2023-07-22T07:10:25;19.00;;;9.90;;
71679;SDS011;59512;42.662;23.254;2023-07-22T07:12:51;15.75;;;9.38;;
71679;SDS011;59512;42.662;23.254;2023-07-22T07:15:16;16.37;;;9.73;;
71679;SDS011;59512;42.662;23.254;2023-07-22T07:17:42;18.27;;;10.17;;
71679;SDS011;59512;42.662;23.254;2023-07-22T07:20:07;15.47;;;9.30;;
71679;SDS011;59512;42.662;23.254;2023-07-22T07:22:33;18.50;;;9.52;;
71679;SDS011;59512;42.662;23.254;2023-07-22T07:24:58;17.30;;;9.97;;
71679;SDS011;59512;42.662;23.254;2023-07-22T07:27:24;14.50;;;9.10;;
71679;SDS011;59512;42.662;23.254;2023-07-22T07:29:49;15.40;;;9.27;;
71679;SDS011;59512;42.662;23.254;2023-07-22T07:32:14;15.57;;;8.82;;
71679;SDS011;59512;42.662;23.254;2023-07-22T07:34:40;16.63;;;9.73;;
71679;SDS011;59512;42.662;23.254;2023-07-22T07:37:05;17.17;;;9.67;;
71679;SDS011;59512;42.662;23.254;2023-07-22T07:39:31;15.20;;;9.63;;
71679;SDS011;59512;42.662;23.254;2023-07-22T07:41:56;16.17;;;9.83;;
71679;SDS011;59512;42.662;23.254;2023-07-22T07:44:22;20.33;;;9.77;;
71679;SDS011;59512;42.662;23.254;2023-07-22T07:46:47;16.67;;;8.83;;
71679;SDS011;59512;42.662;23.254;2023-07-22T07:49:12;18.27;;;9.90;;
71679;SDS011;59512;42.662;23.254;2023-07-22T07:51:38;20.08;;;9.27;;
71679;SDS011;59512;42.662;23.254;2023-07-22T07:54:04;18.93;;;10.20;;
71679;SDS011;59512;42.662;23.254;2023-07-22T07:56:32;16.75;;;9.20;;
71679;SDS011;59512;42.662;23.254;2023-07-22T07:58:57;15.53;;;9.20;;
71679;SDS011;59512;42.662;23.254;2023-07-22T08:01:22;17.43;;;10.23;;
71679;SDS011;59512;42.662;23.254;2023-07-22T08:03:48;17.02;;;10.00;;
71679;SDS011;59512;42.662;23.254;2023-07-22T08:06:13;17.80;;;10.20;;
71679;SDS011;59512;42.662;23.254;2023-07-22T08:08:39;16.67;;;9.63;;
71679;SDS011;59512;42.662;23.254;2023-07-22T08:11:08;16.90;;;9.98;;
71679;SDS011;59512;42.662;23.254;2023-07-22T08:13:35;16.45;;;9.75;;
71679;SDS011;59512;42.662;23.254;2023-07-22T08:16:04;17.52;;;10.50;;
71679;SDS011;59512;42.662;23.254;2023-07-22T08:18:31;19.35;;;9.90;;
71679;SDS011;59512;42.662;23.254;2023-07-22T08:20:57;18.90;;;10.02;;
71679;SDS011;59512;42.662;23.254;2023-07-22T08:23:23;18.80;;;10.02;;
71679;SDS011;59512;42.662;23.254;2023-07-22T08:25:49;19.42;;;9.52;;
71679;SDS011;59512;42.662;23.254;2023-07-22T08:28:15;15.67;;;9.70;;
71679;SDS011;59512;42.662;23.254;2023-07-22T08:30:40;15.25;;;9.70;;
71679;SDS011;59512;42.662;23.254;2023-07-22T08:33:07;19.20;;;9.77;;
71679;SDS011;59512;42.662;23.254;2023-07-22T08:35:34;18.13;;;10.05;;
71679;SDS011;59512;42.662;23.254;2023-07-22T08:38:00;19.80;;;10.35;;
71679;SDS011;59512;42.662;23.254;2023-07-22T08:40:27;18.23;;;9.85;;
71679;SDS011;59512;42.662;23.254;2023-07-22T08:42:52;16.70;;;9.75;;
71679;SDS011;59512;42.662;23.254;2023-07-22T08:45:18;19.38;;;9.98;;
71679;SDS011;59512;42.662;23.254;2023-07-22T08:47:45;18.42;;;10.48;;
71679;SDS011;59512;42.662;23.254;2023-07-22T08:50:11;13.85;;;9.10;;
71679;SDS011;59512;42.662;23.254;2023-07-22T08:52:40;20.87;;;10.30;;
71679;SDS011;59512;42.662;23.254;2023-07-22T08:55:06;17.73;;;9.82;;
71679;SDS011;59512;42.662;23.254;2023-07-22T08:57:32;18.27;;;9.95;;
71679;SDS011;59512;42.662;23.254;2023-07-22T08:59:58;19.17;;;9.63;;
71679;SDS011;59512;42.662;23.254;2023-07-22T09:02:24;19.30;;;9.70;;
71679;SDS011;59512;42.662;23.254;2023-07-22T09:04:50;16.27;;;9.57;;
71679;SDS011;59512;42.662;23.254;2023-07-22T09:07:15;17.43;;;9.77;;
71679;SDS011;59512;42.662;23.254;2023-07-22T09:09:41;17.42;;;9.60;;
71679;SDS011;59512;42.662;23.254;2023-07-22T09:12:08;17.27;;;9.57;;
71679;SDS011;59512;42.662;23.254;2023-07-22T09:14:33;20.43;;;9.93;;
71679;SDS011;59512;42.662;23.254;2023-07-22T09:16:59;19.07;;;9.80;;
71679;SDS011;59512;42.662;23.254;2023-07-22T09:19:24;21.07;;;10.10;;
71679;SDS011;59512;42.662;23.254;2023-07-22T09:21:50;16.17;;;9.77;;
71679;SDS011;59512;42.662;23.254;2023-07-22T09:24:19;19.83;;;10.30;;
71679;SDS011;59512;42.662;23.254;2023-07-22T09:26:53;15.45;;;9.40;;
71679;SDS011;59512;42.662;23.254;2023-07-22T09:29:18;17.83;;;9.70;;
71679;SDS011;59512;42.662;23.254;2023-07-22T09:31:58;16.52;;;9.50;;
71679;SDS011;59512;42.662;23.254;2023-07-22T09:34:23;17.17;;;9.70;;
71679;SDS011;59512;42.662;23.254;2023-07-22T09:39:16;18.20;;;9.35;;
71679;SDS011;59512;42.662;23.254;2023-07-22T09:41:41;17.63;;;9.40;;
71679;SDS011;59512;42.662;23.254;2023-07-22T09:44:09;15.47;;;9.87;;
71679;SDS011;59512;42.662;23.254;2023-07-22T09:46:35;19.60;;;9.32;;
71679;SDS011;59512;42.662;23.254;2023-07-22T09:49:04;16.90;;;9.03;;
71679;SDS011;59512;42.662;23.254;2023-07-22T09:51:34;19.92;;;9.52;;
71679;SDS011;59512;42.662;23.254;2023-07-22T09:54:01;16.98;;;9.10;;
71679;SDS011;59512;42.662;23.254;2023-07-22T09:56:28;20.00;;;9.40;;
71679;SDS011;59512;42.662;23.254;2023-07-22T09:58:53;20.57;;;9.90;;
71679;SDS011;59512;42.662;23.254;2023-07-22T10:01:20;18.38;;;8.82;;
71679;SDS011;59512;42.662;23.254;2023-07-22T10:03:50;18.85;;;9.20;;
71679;SDS011;59512;42.662;23.254;2023-07-22T10:06:20;17.47;;;8.83;;
71679;SDS011;59512;42.662;23.254;2023-07-22T10:08:46;18.02;;;7.05;;
71679;SDS011;59512;42.662;23.254;2023-07-22T10:11:13;16.25;;;7.00;;
71679;SDS011;59512;42.662;23.254;2023-07-22T10:13:39;19.15;;;6.65;;
71679;SDS011;59512;42.662;23.254;2023-07-22T10:16:05;16.07;;;5.90;;
71679;SDS011;59512;42.662;23.254;2023-07-22T10:18:31;17.55;;;6.55;;
71679;SDS011;59512;42.662;23.254;2023-07-22T10:20:57;20.07;;;6.30;;
71679;SDS011;59512;42.662;23.254;2023-07-22T10:23:24;18.23;;;6.47;;
71679;SDS011;59512;42.662;23.254;2023-07-22T10:25:50;21.00;;;6.50;;
71679;SDS011;59512;42.662;23.254;2023-07-22T10:28:17;21.50;;;6.90;;
71679;SDS011;59512;42.662;23.254;2023-07-22T10:30:44;25.50;;;6.50;;
71679;SDS011;59512;42.662;23.254;2023-07-22T10:33:10;20.83;;;6.43;;
71679;SDS011;59512;42.662;23.254;2023-07-22T10:35:42;17.05;;;5.55;;
71679;SDS011;59512;42.662;23.254;2023-07-22T10:38:16;14.07;;;5.82;;
71679;SDS011;59512;42.662;23.254;2023-07-22T10:43:16;16.02;;;6.20;;
71679;SDS011;59512;42.662;23.254;2023-07-22T10:45:43;19.73;;;6.25;;
71679;SDS011;59512;42.662;23.254;2023-07-22T10:48:15;16.67;;;5.97;;
71679;SDS011;59512;42.662;23.254;2023-07-22T10:50:44;25.50;;;6.23;;
71679;SDS011;59512;42.662;23.254;2023-07-22T11:09:34;20.00;;;5.95;;
71679;SDS011;59512;42.662;23.254;2023-07-22T11:11:59;21.27;;;5.37;;
71679;SDS011;59512;42.662;23.254;2023-07-22T11:14:38;17.95;;;5.15;;
71679;SDS011;59512;42.662;23.254;2023-07-22T11:17:06;27.88;;;5.47;;
71679;SDS011;59512;42.662;23.254;2023-07-22T11:19:36;19.42;;;6.38;;
71679;SDS011;59512;42.662;23.254;2023-07-22T11:22:02;20.90;;;6.13;;
71679;SDS011;59512;42.662;23.254;2023-07-22T11:24:28;21.77;;;5.93;;
71679;SDS011;59512;42.662;23.254;2023-07-22T11:26:54;22.58;;;5.43;;
71679;SDS011;59512;42.662;23.254;2023-07-22T11:29:19;20.03;;;6.13;;
71679;SDS011;59512;42.662;23.254;2023-07-22T11:31:46;19.40;;;5.93;;
71679;SDS011;59512;42.662;23.254;2023-07-22T11:34:13;19.02;;;6.05;;
71679;SDS011;59512;42.662;23.254;2023-07-22T11:36:46;20.35;;;6.45;;
71679;SDS011;59512;42.662;23.254;2023-07-22T11:39:17;21.20;;;5.88;;
71679;SDS011;59512;42.662;23.254;2023-07-22T11:41:43;28.15;;;5.93;;
71679;SDS011;59512;42.662;23.254;2023-07-22T11:44:11;22.73;;;6.25;;
71679;SDS011;59512;42.662;23.254;2023-07-22T11:46:55;18.73;;;5.55;;
71679;SDS011;59512;42.662;23.254;2023-07-22T11:49:26;18.35;;;6.03;;
71679;SDS011;59512;42.662;23.254;2023-07-22T11:51:56;20.70;;;6.25;;
71679;SDS011;59512;42.662;23.254;2023-07-22T11:54:23;17.27;;;5.75;;
71679;SDS011;59512;42.662;23.254;2023-07-22T11:56:48;26.48;;;6.85;;
71679;SDS011;59512;42.662;23.254;2023-07-22T11:59:14;20.17;;;6.07;;
71679;SDS011;59512;42.662;23.254;2023-07-22T12:01:39;18.70;;;5.53;;
71679;SDS011;59512;42.662;23.254;2023-07-22T12:04:12;21.52;;;5.70;;
71679;SDS011;59512;42.662;23.254;2023-07-22T12:06:39;20.88;;;6.03;;
71679;SDS011;59512;42.662;23.254;2023-07-22T12:09:06;21.05;;;5.53;;
71679;SDS011;59512;42.662;23.254;2023-07-22T12:11:33;24.70;;;6.38;;
71679;SDS011;59512;42.662;23.254;2023-07-22T12:16:37;19.23;;;6.38;;
71679;SDS011;59512;42.662;23.254;2023-07-22T12:19:04;18.88;;;5.97;;
71679;SDS011;59512;42.662;23.254;2023-07-22T12:21:29;23.00;;;5.60;;
71679;SDS011;59512;42.662;23.254;2023-07-22T12:23:56;25.13;;;6.55;;
71679;SDS011;59512;42.662;23.254;2023-07-22T12:26:22;18.43;;;5.83;;
71679;SDS011;59512;42.662;23.254;2023-07-22T12:28:47;25.40;;;6.77;;
71679;SDS011;59512;42.662;23.254;2023-07-22T12:31:12;23.35;;;6.28;;
71679;SDS011;59512;42.662;23.254;2023-07-22T12:33:38;20.45;;;6.03;;
71679;SDS011;59512;42.662;23.254;2023-07-22T12:36:03;19.93;;;6.17;;
71679;SDS011;59512;42.662;23.254;2023-07-22T12:38:30;21.98;;;6.00;;
71679;SDS011;59512;42.662;23.254;2023-07-22T12:40:55;22.80;;;5.57;;
71679;SDS011;59512;42.662;23.254;2023-07-22T12:43:21;18.55;;;6.00;;
71679;SDS011;59512;42.662;23.254;2023-07-22T12:45:46;21.97;;;5.73;;
71679;SDS011;59512;42.662;23.254;2023-07-22T12:48:12;19.10;;;5.93;;
71679;SDS011;59512;42.662;23.254;2023-07-22T12:50:37;24.20;;;5.23;;
71679;SDS011;59512;42.662;23.254;2023-07-22T12:53:03;22.98;;;5.85;;
71679;SDS011;59512;42.662;23.254;2023-07-22T12:55:28;21.13;;;5.90;;
71679;SDS011;59512;42.662;23.254;2023-07-22T12:57:54;18.73;;;6.07;;
71679;SDS011;59512;42.662;23.254;2023-07-22T13:00:19;19.38;;;5.80;;
71679;SDS011;59512;42.662;23.254;2023-07-22T13:02:46;18.45;;;5.53;;
71679;SDS011;59512;42.662;23.254;2023-07-22T13:05:11;23.60;;;5.50;;
71679;SDS011;59512;42.662;23.254;2023-07-22T13:07:37;21.35;;;5.80;;
71679;SDS011;59512;42.662;23.254;2023-07-22T13:10:05;23.48;;;6.05;;
71679;SDS011;59512;42.662;23.254;2023-07-22T13:12:35;23.50;;;5.68;;
71679;SDS011;59512;42.662;23.254;2023-07-22T13:15:01;20.65;;;5.53;;
71679;SDS011;59512;42.662;23.254;2023-07-22T13:17:27;21.63;;;5.80;;
71679;SDS011;59512;42.662;23.254;2023-07-22T13:19:53;18.77;;;5.73;;
71679;SDS011;59512;42.662;23.254;2023-07-22T13:22:18;19.77;;;5.37;;
71679;SDS011;59512;42.662;23.254;2023-07-22T13:24:43;19.77;;;5.55;;
71679;SDS011;59512;42.662;23.254;2023-07-22T13:27:09;17.63;;;5.10;;
71679;SDS011;59512;42.662;23.254;2023-07-22T13:29:34;18.37;;;5.47;;
71679;SDS011;59512;42.662;23.254;2023-07-22T13:32:00;15.00;;;5.50;;
71679;SDS011;59512;42.662;23.254;2023-07-22T13:34:25;23.43;;;6.10;;
71679;SDS011;59512;42.662;23.254;2023-07-22T13:36:51;20.15;;;5.10;;
71679;SDS011;59512;42.662;23.254;2023-07-22T13:39:16;23.70;;;6.27;;
71679;SDS011;59512;42.662;23.254;2023-07-22T13:41:42;24.27;;;5.83;;
71679;SDS011;59512;42.662;23.254;2023-07-22T13:44:07;24.25;;;5.70;;
71679;SDS011;59512;42.662;23.254;2023-07-22T13:46:32;23.07;;;5.70;;
71679;SDS011;59512;42.662;23.254;2023-07-22T13:48:58;16.33;;;4.83;;
71679;SDS011;59512;42.662;23.254;2023-07-22T13:51:23;21.77;;;5.47;;
71679;SDS011;59512;42.662;23.254;2023-07-22T13:53:48;22.37;;;5.17;;
71679;SDS011;59512;42.662;23.254;2023-07-22T13:56:14;18.73;;;5.20;;
71679;SDS011;59512;42.662;23.254;2023-07-22T13:58:39;19.20;;;5.10;;
71679;SDS011;59512;42.662;23.254;2023-07-22T14:01:05;20.67;;;4.87;;
71679;SDS011;59512;42.662;23.254;2023-07-22T14:03:30;14.27;;;5.03;;
71679;SDS011;59512;42.662;23.254;2023-07-22T14:05:56;22.93;;;5.87;;
71679;SDS011;59512;42.662;23.254;2023-07-22T14:08:22;21.98;;;5.68;;
71679;SDS011;59512;42.662;23.254;2023-07-22T14:10:47;23.03;;;5.70;;
71679;SDS011;59512;42.662;23.254;2023-07-22T14:13:12;21.05;;;5.20;;
71679;SDS011;59512;42.662;23.254;2023-07-22T14:15:38;23.97;;;5.33;;
71679;SDS011;59512;42.662;23.254;2023-07-22T14:18:04;22.70;;;6.00;;
71679;SDS011;59512;42.662;23.254;2023-07-22T14:20:29;19.48;;;5.55;;
71679;SDS011;59512;42.662;23.254;2023-07-22T14:22:55;18.08;;;5.10;;
71679;SDS011;59512;42.662;23.254;2023-07-22T14:25:21;19.67;;;5.78;;
71679;SDS011;59512;42.662;23.254;2023-07-22T14:27:47;19.17;;;4.80;;
71679;SDS011;59512;42.662;23.254;2023-07-22T14:30:12;21.58;;;5.40;;
71679;SDS011;59512;42.662;23.254;2023-07-22T14:32:37;23.80;;;5.07;;
71679;SDS011;59512;42.662;23.254;2023-07-22T14:35:03;22.60;;;4.80;;
71679;SDS011;59512;42.662;23.254;2023-07-22T14:37:29;17.77;;;4.93;;
71679;SDS011;59512;42.662;23.254;2023-07-22T14:39:55;21.85;;;5.47;;
71679;SDS011;59512;42.662;23.254;2023-07-22T14:42:21;23.70;;;5.83;;
71679;SDS011;59512;42.662;23.254;2023-07-22T14:44:46;29.17;;;6.47;;
71679;SDS011;59512;42.662;23.254;2023-07-22T14:47:12;26.98;;;5.95;;
71679;SDS011;59512;42.662;23.254;2023-07-22T14:49:37;19.70;;;4.95;;
71679;SDS011;59512;42.662;23.254;2023-07-22T14:52:02;20.37;;;4.93;;
71679;SDS011;59512;42.662;23.254;2023-07-22T14:54:28;21.90;;;5.37;;
71679;SDS011;59512;42.662;23.254;2023-07-22T14:56:53;26.07;;;5.83;;
71679;SDS011;59512;42.662;23.254;2023-07-22T14:59:19;22.13;;;5.30;;
71679;SDS011;59512;42.662;23.254;2023-07-22T15:01:44;19.20;;;4.73;;
71679;SDS011;59512;42.662;23.254;2023-07-22T15:04:09;18.43;;;5.40;;